createdAt,value
2023-03-16T00:00:43.130Z,6.10
2023-03-16T00:04:06.960Z,5.73
2023-03-16T00:07:31.425Z,5.30
2023-03-16T00:10:55.233Z,4.97
2023-03-16T00:14:20.363Z,4.77
2023-03-16T00:17:48.722Z,5.20
2023-03-16T00:21:15.093Z,4.70
2023-03-16T00:24:38.513Z,4.53
2023-03-16T00:28:03.579Z,4.73
2023-03-16T00:31:28.505Z,5.53
2023-03-16T00:34:52.603Z,6.07
2023-03-16T00:38:16.483Z,4.83
2023-03-16T00:41:40.274Z,5.07
2023-03-16T00:45:05.850Z,6.57
2023-03-16T00:48:34.429Z,4.70
2023-03-16T00:51:58.543Z,5.07
2023-03-16T00:55:22.605Z,4.70
2023-03-16T00:58:46.261Z,8.93
2023-03-16T01:02:11.425Z,7.30
2023-03-16T01:05:42.026Z,5.03
2023-03-16T01:09:06.650Z,5.33
2023-03-16T01:12:30.398Z,5.87
2023-03-16T01:15:54.135Z,5.50
2023-03-16T01:19:17.938Z,5.37
2023-03-16T01:22:43.074Z,4.83
2023-03-16T01:26:08.378Z,5.17
2023-03-16T01:29:32.968Z,5.47
2023-03-16T01:32:56.786Z,6.40
2023-03-16T01:36:21.056Z,6.10
2023-03-16T01:39:59.179Z,6.17
2023-03-16T01:43:26.726Z,7.37
2023-03-16T01:46:52.432Z,5.03
2023-03-16T01:50:17.831Z,6.07
2023-03-16T01:53:46.805Z,6.20
2023-03-16T01:57:16.493Z,5.20
2023-03-16T02:00:41.892Z,5.50
2023-03-16T02:04:27.929Z,5.43
2023-03-16T02:07:58.889Z,5.67
2023-03-16T02:11:24.474Z,4.90
2023-03-16T02:15:11.415Z,6.70
2023-03-16T02:18:36.473Z,5.97
2023-03-16T02:22:04.965Z,5.43
2023-03-16T02:25:41.642Z,4.77
2023-03-16T02:29:25.553Z,6.07
2023-03-16T02:32:53.812Z,6.47
2023-03-16T02:36:20.806Z,6.10
2023-03-16T02:39:44.621Z,5.97
2023-03-16T02:43:19.844Z,6.10
2023-03-16T02:46:57.267Z,6.43
2023-03-16T02:50:22.622Z,5.13
2023-03-16T02:53:45.983Z,5.67
2023-03-16T02:57:10.692Z,6.37
2023-03-16T03:00:34.520Z,5.20
2023-03-16T03:03:58.509Z,5.30
2023-03-16T03:07:32.191Z,6.00
2023-03-16T03:11:00.162Z,5.30
2023-03-16T03:14:25.304Z,6.20
2023-03-16T03:17:49.370Z,5.97
2023-03-16T03:21:12.816Z,6.40
2023-03-16T03:24:38.373Z,6.23
2023-03-16T03:28:05.504Z,4.67
2023-03-16T03:31:29.597Z,7.00
2023-03-16T03:34:54.724Z,6.33
2023-03-16T03:38:18.186Z,5.90
2023-03-16T03:41:43.841Z,7.67
2023-03-16T03:45:12.602Z,6.00
2023-03-16T03:48:37.431Z,5.50
2023-03-16T03:52:04.738Z,5.50
2023-03-16T03:55:28.606Z,5.60
2023-03-16T03:58:53.888Z,5.03
2023-03-16T04:02:37.393Z,7.07
2023-03-16T04:06:03.053Z,6.03
2023-03-16T04:09:28.418Z,9.53
2023-03-16T04:12:52.231Z,5.80
2023-03-16T04:16:17.615Z,6.70
2023-03-16T04:19:44.673Z,7.27
2023-03-16T04:23:11.536Z,7.70
2023-03-16T04:26:37.333Z,6.60
2023-03-16T04:30:01.843Z,7.00
2023-03-16T04:33:27.801Z,7.00
2023-03-16T04:36:52.815Z,6.77
2023-03-16T04:40:16.906Z,7.50
2023-03-16T04:43:46.932Z,7.47
2023-03-16T04:47:18.534Z,6.77
2023-03-16T04:50:43.616Z,8.40
2023-03-16T04:54:07.965Z,6.97
2023-03-16T04:57:35.090Z,7.43
2023-03-16T05:00:59.666Z,6.50
2023-03-16T05:04:26.320Z,7.90
2023-03-16T05:07:51.868Z,7.83
2023-03-16T05:11:15.586Z,6.87
2023-03-16T05:14:49.026Z,6.23
2023-03-16T05:18:19.938Z,7.57
2023-03-16T05:21:43.516Z,6.87
2023-03-16T05:25:14.824Z,7.43
2023-03-16T05:28:40.101Z,8.90
2023-03-16T05:32:08.458Z,7.53
2023-03-16T05:35:33.516Z,7.10
2023-03-16T05:39:01.547Z,7.17
2023-03-16T05:42:31.097Z,7.63
2023-03-16T05:45:58.815Z,6.80
2023-03-16T05:49:22.585Z,6.50
2023-03-16T05:52:48.349Z,8.37
2023-03-16T05:56:17.396Z,8.50
2023-03-16T05:59:45.135Z,7.50
2023-03-16T06:03:09.911Z,7.53
2023-03-16T06:06:35.116Z,7.43
2023-03-16T06:10:07.608Z,6.90
2023-03-16T06:13:31.670Z,7.07
2023-03-16T06:16:56.934Z,7.60
2023-03-16T06:20:21.255Z,7.47
2023-03-16T06:23:45.070Z,7.03
2023-03-16T06:27:09.159Z,7.43
2023-03-16T06:30:45.361Z,9.20
2023-03-16T06:34:10.355Z,7.57
2023-03-16T06:37:34.198Z,8.13
2023-03-16T06:41:02.653Z,8.67
2023-03-16T06:44:29.076Z,7.57
2023-03-16T06:48:01.319Z,10.50
2023-03-16T06:51:27.033Z,8.30
2023-03-16T06:54:51.293Z,10.60
2023-03-16T06:58:16.971Z,8.40
2023-03-16T07:01:42.134Z,8.97
2023-03-16T07:05:06.658Z,10.90
2023-03-16T07:08:31.758Z,9.60
2023-03-16T07:11:55.594Z,10.37
2023-03-16T07:15:21.107Z,9.67
2023-03-16T07:18:45.121Z,10.33
2023-03-16T07:22:12.714Z,9.03
2023-03-16T07:25:39.612Z,9.57
2023-03-16T07:29:04.998Z,7.57
2023-03-16T07:32:29.549Z,8.47
2023-03-16T07:35:53.531Z,8.50
2023-03-16T07:39:17.837Z,7.30
2023-03-16T07:42:44.073Z,8.03
2023-03-16T07:46:13.639Z,7.27
2023-03-16T07:49:37.801Z,6.60
2023-03-16T07:53:01.294Z,7.13
2023-03-16T07:56:25.183Z,5.77
2023-03-16T07:59:53.915Z,4.80
2023-03-16T08:03:17.717Z,4.07
2023-03-16T08:06:43.248Z,6.53
2023-03-16T08:10:08.357Z,7.23
2023-03-16T08:13:43.793Z,4.50
2023-03-16T08:17:09.269Z,3.90
2023-03-16T08:20:32.955Z,3.93
2023-03-16T08:23:56.640Z,3.67
2023-03-16T08:27:20.688Z,3.63
2023-03-16T08:30:50.903Z,4.03
2023-03-16T08:34:28.804Z,3.53
2023-03-16T08:37:52.379Z,3.90
2023-03-16T08:41:17.310Z,4.00
2023-03-16T08:44:43.974Z,3.87
2023-03-16T08:48:08.442Z,3.77
2023-03-16T08:51:33.703Z,3.90
2023-03-16T08:55:03.478Z,3.70
2023-03-16T08:58:30.486Z,3.77
2023-03-16T09:01:54.467Z,4.00
2023-03-16T09:05:18.717Z,3.20
2023-03-16T09:08:45.501Z,3.20
2023-03-16T09:12:09.605Z,3.70
2023-03-16T09:15:33.254Z,3.63
2023-03-16T09:18:56.715Z,2.80
2023-03-16T09:22:20.527Z,2.90
2023-03-16T09:25:45.347Z,2.67
2023-03-16T09:29:08.829Z,2.50
2023-03-16T09:32:33.524Z,2.60
2023-03-16T09:35:58.616Z,2.83
2023-03-16T09:39:22.901Z,4.30
2023-03-16T09:43:03.155Z,3.30
2023-03-16T09:46:33.971Z,2.83
2023-03-16T09:50:04.182Z,2.87
2023-03-16T09:53:32.723Z,2.33
2023-03-16T09:56:59.022Z,2.50
2023-03-16T10:00:28.456Z,2.83
2023-03-16T10:04:27.861Z,2.73
2023-03-16T10:08:05.882Z,2.97
2023-03-16T10:11:38.407Z,2.40
2023-03-16T10:15:11.179Z,2.60
2023-03-16T10:18:44.891Z,2.67
2023-03-16T10:22:20.308Z,2.80
2023-03-16T10:25:48.948Z,2.57
2023-03-16T10:29:14.550Z,2.60
2023-03-16T10:32:38.375Z,2.93
2023-03-16T10:36:15.582Z,2.63
2023-03-16T10:39:43.003Z,2.33
2023-03-16T10:43:09.265Z,2.83
2023-03-16T10:46:40.298Z,2.20
2023-03-16T10:50:16.738Z,2.20
2023-03-16T10:53:45.515Z,2.40
2023-03-16T10:57:25.301Z,2.00
2023-03-16T11:00:48.873Z,2.90
2023-03-16T11:04:17.913Z,3.50
2023-03-16T11:07:49.880Z,1.60
2023-03-16T11:11:19.155Z,2.20
2023-03-16T11:14:46.603Z,1.73
2023-03-16T11:18:29.581Z,1.70
2023-03-16T11:21:59.946Z,2.43
2023-03-16T11:25:33.798Z,2.03
2023-03-16T11:29:09.340Z,1.83
2023-03-16T11:32:38.540Z,2.60
2023-03-16T11:36:27.729Z,1.60
2023-03-16T11:40:14.243Z,1.70
2023-03-16T11:43:54.036Z,1.80
2023-03-16T11:47:56.042Z,1.77
2023-03-16T11:51:37.609Z,2.13
2023-03-16T11:55:21.260Z,2.80
2023-03-16T11:59:09.044Z,1.80
2023-03-16T12:02:56.165Z,1.90
2023-03-16T12:06:34.114Z,1.70
2023-03-16T12:10:18.595Z,1.90
2023-03-16T12:14:02.225Z,2.20
2023-03-16T12:17:32.435Z,2.40
2023-03-16T12:21:01.289Z,1.60
2023-03-16T12:24:33.897Z,1.63
2023-03-16T12:28:02.869Z,1.60
2023-03-16T12:31:41.808Z,1.87
2023-03-16T12:35:26.110Z,2.37
2023-03-16T12:38:57.907Z,2.20
2023-03-16T12:42:55.493Z,2.27
2023-03-16T12:46:32.623Z,2.00
2023-03-16T12:50:05.493Z,3.23
2023-03-16T12:53:43.387Z,1.90
2023-03-16T12:57:16.919Z,1.70
2023-03-16T13:00:42.750Z,2.83
2023-03-16T13:04:13.511Z,2.23
2023-03-16T13:07:39.176Z,3.40
2023-03-16T13:11:06.304Z,2.90
2023-03-16T13:14:41.735Z,2.00
2023-03-16T13:18:23.343Z,2.40
2023-03-16T13:21:47.175Z,1.70
2023-03-16T13:25:22.457Z,4.33
2023-03-16T13:28:51.781Z,2.70
2023-03-16T13:32:20.600Z,2.87
2023-03-16T13:35:45.402Z,2.20
2023-03-16T13:39:18.758Z,2.10
2023-03-16T13:42:47.708Z,1.97
2023-03-16T13:46:18.972Z,2.60
2023-03-16T13:49:48.742Z,1.60
2023-03-16T13:53:18.482Z,1.73
2023-03-16T13:56:44.984Z,1.80
2023-03-16T14:00:18.091Z,2.67
2023-03-16T14:03:43.486Z,1.50
2023-03-16T14:07:17.905Z,1.97
2023-03-16T14:10:43.653Z,1.50
2023-03-16T14:14:16.470Z,2.20
2023-03-16T14:17:43.502Z,6.03
2023-03-16T14:21:10.603Z,2.67
2023-03-16T14:24:39.620Z,1.87
2023-03-16T14:28:08.806Z,2.10
2023-03-16T14:31:39.716Z,3.13
2023-03-16T14:35:16.358Z,2.17
2023-03-16T14:38:41.617Z,2.17
2023-03-16T14:42:16.050Z,2.27
2023-03-16T14:45:40.689Z,2.30
2023-03-16T14:49:11.301Z,1.70
2023-03-16T14:52:37.154Z,1.83
2023-03-16T14:56:01.709Z,2.37
2023-03-16T14:59:26.992Z,2.10
2023-03-16T15:03:03.146Z,2.13
2023-03-16T15:06:27.321Z,2.83
2023-03-16T15:09:53.751Z,1.67
2023-03-16T15:13:34.844Z,2.00
2023-03-16T15:16:59.708Z,2.40
2023-03-16T15:20:30.405Z,1.67
2023-03-16T15:23:54.578Z,1.97
2023-03-16T15:27:26.394Z,1.50
2023-03-16T15:30:53.483Z,1.63
2023-03-16T15:34:18.547Z,1.90
2023-03-16T15:37:42.248Z,3.60
2023-03-16T15:41:10.478Z,2.20
2023-03-16T15:44:34.392Z,1.47
2023-03-16T15:47:58.257Z,1.30
2023-03-16T15:51:29.000Z,1.30
2023-03-16T15:54:52.929Z,1.70
2023-03-16T15:58:21.308Z,1.40
2023-03-16T16:01:48.479Z,1.53
2023-03-16T16:05:12.433Z,1.53
2023-03-16T16:08:37.752Z,1.40
2023-03-16T16:12:01.332Z,1.50
2023-03-16T16:15:29.425Z,1.73
2023-03-16T16:18:53.162Z,2.50
2023-03-16T16:22:17.523Z,2.73
2023-03-16T16:25:43.727Z,1.53
2023-03-16T16:29:14.124Z,2.53
2023-03-16T16:32:37.755Z,1.50
2023-03-16T16:36:03.980Z,1.43
2023-03-16T16:39:27.824Z,1.80
2023-03-16T16:42:54.331Z,1.30
2023-03-16T16:46:21.179Z,2.33
2023-03-16T16:49:44.778Z,1.57
2023-03-16T16:53:20.719Z,3.10
2023-03-16T16:56:45.111Z,1.80
2023-03-16T17:00:23.101Z,2.00
2023-03-16T17:03:46.969Z,2.10
2023-03-16T17:07:13.483Z,1.77
2023-03-16T17:10:38.330Z,2.30
2023-03-16T17:14:06.360Z,1.90
2023-03-16T17:17:31.806Z,2.50
2023-03-16T17:20:57.042Z,1.60
2023-03-16T17:24:20.961Z,1.90
2023-03-16T17:27:48.226Z,1.53
2023-03-16T17:31:13.670Z,1.70
2023-03-16T17:34:38.682Z,1.70
2023-03-16T17:38:02.154Z,2.10
2023-03-16T17:41:30.132Z,2.63
2023-03-16T17:44:55.540Z,2.17
2023-03-16T17:48:24.592Z,2.23
2023-03-16T17:51:49.620Z,2.47
2023-03-16T17:55:14.112Z,2.00
2023-03-16T17:58:38.201Z,2.67
2023-03-16T18:02:01.897Z,3.20
2023-03-16T18:05:28.847Z,1.60
2023-03-16T18:08:54.291Z,1.60
2023-03-16T18:12:17.919Z,1.60
2023-03-16T18:15:41.595Z,2.00
2023-03-16T18:19:21.699Z,3.50
2023-03-16T18:22:45.288Z,1.40
2023-03-16T18:26:11.382Z,1.80
2023-03-16T18:29:34.981Z,1.57
2023-03-16T18:33:00.152Z,1.70
2023-03-16T18:36:29.464Z,2.10
2023-03-16T18:39:55.067Z,1.53
2023-03-16T18:43:19.901Z,1.83
2023-03-16T18:46:44.617Z,1.40
2023-03-16T18:50:16.942Z,1.60
2023-03-16T18:53:40.741Z,1.83
2023-03-16T18:57:05.620Z,1.50
2023-03-16T19:00:32.010Z,1.80
2023-03-16T19:03:57.791Z,1.80
2023-03-16T19:07:29.687Z,1.50
2023-03-16T19:10:56.449Z,1.60
2023-03-16T19:14:23.540Z,1.60
2023-03-16T19:17:49.219Z,1.90
2023-03-16T19:21:21.073Z,1.50
2023-03-16T19:24:48.213Z,1.60
2023-03-16T19:28:16.423Z,1.63
2023-03-16T19:31:40.554Z,2.10
2023-03-16T19:35:15.457Z,1.57
2023-03-16T19:38:39.333Z,1.50
2023-03-16T19:42:03.245Z,1.30
2023-03-16T19:45:33.188Z,1.70
2023-03-16T19:48:57.650Z,1.70
2023-03-16T19:52:22.658Z,1.63
2023-03-16T19:55:48.103Z,2.30
2023-03-16T19:59:13.000Z,2.27
2023-03-16T20:02:40.172Z,1.80
2023-03-16T20:06:04.029Z,2.10
2023-03-16T20:09:29.201Z,3.07
2023-03-16T20:12:56.613Z,2.10
2023-03-16T20:16:26.288Z,1.40
2023-03-16T20:19:50.703Z,1.90
2023-03-16T20:23:20.244Z,1.50
2023-03-16T20:26:47.071Z,1.50
2023-03-16T20:30:18.635Z,2.20
2023-03-16T20:33:42.106Z,1.90
2023-03-16T20:37:23.744Z,1.80
2023-03-16T20:40:50.486Z,2.00
2023-03-16T20:44:19.145Z,1.60
2023-03-16T20:47:42.943Z,2.10
2023-03-16T20:51:08.338Z,1.80
2023-03-16T20:54:32.166Z,2.40
2023-03-16T20:57:57.467Z,2.37
2023-03-16T21:01:24.516Z,2.90
2023-03-16T21:04:48.563Z,1.97
2023-03-16T21:08:12.748Z,2.20
2023-03-16T21:11:38.702Z,3.43
2023-03-16T21:15:03.637Z,2.23
2023-03-16T21:18:30.548Z,3.93
2023-03-16T21:21:54.565Z,2.43
2023-03-16T21:25:23.489Z,2.50
2023-03-16T21:28:54.960Z,1.80
2023-03-16T21:32:22.066Z,5.07
2023-03-16T21:35:47.096Z,2.67
2023-03-16T21:39:20.456Z,2.87
2023-03-16T21:42:43.980Z,2.10
2023-03-16T21:46:17.919Z,2.00
2023-03-16T21:49:41.620Z,2.70
2023-03-16T21:53:06.953Z,2.20
2023-03-16T21:56:30.892Z,2.33
2023-03-16T21:59:54.408Z,2.03
2023-03-16T22:03:33.010Z,3.57
2023-03-16T22:07:01.543Z,3.40
2023-03-16T22:10:28.523Z,3.40
2023-03-16T22:13:53.332Z,2.17
2023-03-16T22:17:23.170Z,2.00
2023-03-16T22:20:47.486Z,1.80
2023-03-16T22:24:18.319Z,1.90
2023-03-16T22:27:43.221Z,1.73
2023-03-16T22:31:06.846Z,1.80
2023-03-16T22:34:34.314Z,1.97
2023-03-16T22:38:01.686Z,2.30
2023-03-16T22:41:25.379Z,1.70
2023-03-16T22:44:50.840Z,2.47
2023-03-16T22:48:20.591Z,1.97
2023-03-16T22:51:44.201Z,1.67
2023-03-16T22:55:15.817Z,2.03
2023-03-16T22:58:43.357Z,2.13
2023-03-16T23:02:14.829Z,1.63
2023-03-16T23:05:38.337Z,2.20
2023-03-16T23:09:02.292Z,2.73
2023-03-16T23:12:26.986Z,3.57
2023-03-16T23:15:53.445Z,3.37
2023-03-16T23:19:29.687Z,2.20
2023-03-16T23:22:53.863Z,1.50
2023-03-16T23:26:20.983Z,2.20
2023-03-16T23:29:44.648Z,1.80
2023-03-16T23:33:08.705Z,2.07
2023-03-16T23:36:33.684Z,2.10
2023-03-16T23:39:57.138Z,1.80
2023-03-16T23:43:21.222Z,1.67
2023-03-16T23:46:44.741Z,2.10
2023-03-16T23:50:13.669Z,2.80
2023-03-16T23:53:40.344Z,1.70
2023-03-16T23:57:04.286Z,2.00
